Slaton, Texas
Current Conditions -  °F | °C
As of 8:53 PM on Thursday 27 Nov 2014 (Local Time) from KLBB Reporting Station
Clear Clear  
Wind Chill: 40°   Ceiling: Unl
Heat Index: 45°   Visibility: 10mi
Dew Point: 30°   Wind: 9mph
Humidity: 56%   Direction: 190°S
Pressure: 30.27"   Gusts: NA
Location:  33.43°N, 101.64°W
Report Text: KLBB 280253Z 19008KT 10SM CLR 07/M01 A3027 RMK AO2 SLP248 T00721011 56008
Loading
Personal Weather Stations






























Interactive Weather Map New forecast layout! Learn more

10-Day Weather Forecast

Advertisements
Track Severe Weather on mobile